Date,TemperatureHighF,TemperatureAvgF,TemperatureLowF,DewpointHighF,DewpointAvgF,DewpointLowF,HumidityHigh,HumidityAvg,HumidityLow,PressureMaxIn,PressureMinIn,WindSpeedMaxMPH,WindSpeedAvgMPH,GustSpeedMaxMPH,PrecipitationSumIn
2013-3-1,59.7,53.3,49.6,53.8,43.4,33.0,98,73,38,30.50,30.36,14,2,14,0.00
2013-3-2,54.5,49.7,42.3,47.6,39.2,28.1,86,69,42,30.36,30.24,16,3,16,0.00
2013-3-3,55.2,42.9,34.9,40.5,29.2,21.3,98,63,36,30.33,30.21,20,4,20,0.00
2013-3-4,57.4,43.4,31.5,35.3,26.3,18.4,92,54,35,30.21,29.88,20,4,20,0.00
2013-3-5,47.3,43.9,41.2,40.4,35.9,29.3,88,74,51,29.88,29.62,10,2,10,0.00
2013-3-6,52.0,45.2,41.5,42.2,35.2,25.4,86,70,37,29.97,29.59,11,2,26,0.00
2013-3-7,56.8,43.9,35.6,41.7,29.7,24.1,98,61,35,30.03,29.97,13,3,13,0.00
2013-3-8,53.2,42.8,34.5,47.8,32.6,25.6,98,71,36,30.24,30.03,17,4,17,0.00
2013-3-9,60.8,45.1,35.2,43.0,33.6,26.2,98,70,35,30.53,30.24,13,3,13,0.00
2013-3-10,61.7,47.2,36.5,46.5,35.1,27.1,96,68,34,30.53,30.45,10,2,10,0.00
2013-3-11,60.3,52.0,47.8,50.8,39.9,29.8,91,67,35,30.45,30.27,9,2,9,0.00
2013-3-12,61.7,49.9,45.5,50.5,38.1,30.1,93,67,35,30.27,30.21,12,2,12,0.00
2013-3-13,61.3,49.7,45.5,41.0,35.8,28.8,79,60,34,30.27,30.15,12,2,12,0.00
2013-3-14,59.7,51.1,47.3,40.1,34.7,27.8,76,55,35,30.27,30.12,17,3,17,0.00
2013-3-15,62.6,52.9,48.0,49.9,40.8,31.2,85,66,35,30.27,30.24,10,2,10,0.00
2013-3-16,52.2,48.2,43.9,48.8,39.7,20.9,93,73,39,30.27,30.15,18,4,18,0.00
2013-3-17,53.1,44.2,37.9,37.5,25.8,18.9,86,50,36,30.36,30.24,13,3,13,0.00
2013-3-18,57.6,45.2,33.6,36.7,27.4,21.2,90,53,35,30.33,30.09,18,4,18,0.00
2013-3-19,57.0,49.1,44.8,47.6,29.0,20.9,85,48,35,30.09,29.71,16,3,16,0.00
2013-3-20,53.8,48.9,41.5,48.1,32.0,18.8,89,54,36,30.27,29.65,26,8,26,0.00
2013-3-21,52.2,43.7,38.7,32.5,25.8,20.3,75,50,36,30.39,30.27,17,4,17,0.00
2013-3-22,51.4,42.9,35.1,32.8,26.4,17.2,77,54,37,30.42,30.39,16,4,16,0.00
2013-3-23,52.3,41.7,32.5,30.0,23.6,18.3,84,51,36,30.42,30.27,17,4,17,0.00
2013-3-24,54.9,45.4,36.9,28.7,25.4,19.1,70,47,36,30.27,30.09,13,3,13,0.00
2013-3-25,57.7,46.8,38.5,38.5,29.3,24.9,80,53,35,30.09,29.97,10,2,10,0.00
2013-3-26,57.7,50.5,45.9,42.0,32.6,26.5,79,52,35,30.03,29.97,9,2,9,0.00
2013-3-27,60.6,51.9,45.9,45.7,36.2,31.0,84,57,35,30.03,29.91,13,3,13,0.00
2013-3-28,61.0,52.6,46.2,49.6,38.2,31.0,89,61,35,30.18,30.00,10,2,10,0.00
2013-3-29,67.1,55.4,47.7,45.2,37.3,30.5,84,54,33,30.21,30.12,15,3,15,0.00
2013-3-30,80.4,60.1,47.5,48.8,38.8,30.2,92,49,30,30.15,29.94,17,5,17,0.00
2013-3-31,65.1,54.5,48.4,45.9,38.6,31.8,80,57,34,30.09,30.00,13,3,13,0.00